sensor_id;sensor_type;location;lat;lon;timestamp;temperature;humidity
54796;DHT22;40693;43.884;20.340;2023-08-20T00:01:27;640.30;2432.00
54796;DHT22;40693;43.884;20.340;2023-08-20T00:07:24;640.20;2432.00
54796;DHT22;40693;43.884;20.340;2023-08-20T00:09:50;640.10;2432.00
54796;DHT22;40693;43.884;20.340;2023-08-20T00:12:15;640.00;2432.00
54796;DHT22;40693;43.884;20.340;2023-08-20T00:14:58;640.00;2432.00
54796;DHT22;40693;43.884;20.340;2023-08-20T00:17:30;640.00;2432.00
54796;DHT22;40693;43.884;20.340;2023-08-20T00:19:56;640.00;2432.00
54796;DHT22;40693;43.884;20.340;2023-08-20T00:22:23;640.00;2432.00
54796;DHT22;40693;43.884;20.340;2023-08-20T00:24:50;640.00;2432.00
54796;DHT22;40693;43.884;20.340;2023-08-20T00:27:17;640.00;2432.00
54796;DHT22;40693;43.884;20.340;2023-08-20T00:29:43;615.30;2432.00
54796;DHT22;40693;43.884;20.340;2023-08-20T00:32:09;640.00;2432.00
54796;DHT22;40693;43.884;20.340;2023-08-20T00:34:34;640.00;2432.00
54796;DHT22;40693;43.884;20.340;2023-08-20T00:37:01;640.00;2432.00
54796;DHT22;40693;43.884;20.340;2023-08-20T00:39:27;640.00;2432.00
54796;DHT22;40693;43.884;20.340;2023-08-20T00:41:53;640.00;2432.00
54796;DHT22;40693;43.884;20.340;2023-08-20T00:44:18;640.00;2432.00
54796;DHT22;40693;43.884;20.340;2023-08-20T00:46:44;615.30;2432.00
54796;DHT22;40693;43.884;20.340;2023-08-20T00:49:10;615.30;2432.00
54796;DHT22;40693;43.884;20.340;2023-08-20T00:51:36;615.30;2432.00
54796;DHT22;40693;43.884;20.340;2023-08-20T00:54:03;615.30;2432.00
54796;DHT22;40693;43.884;20.340;2023-08-20T00:56:29;615.30;2432.00
54796;DHT22;40693;43.884;20.340;2023-08-20T00:58:55;615.30;2432.00
54796;DHT22;40693;43.884;20.340;2023-08-20T01:01:24;615.30;2432.00
54796;DHT22;40693;43.884;20.340;2023-08-20T01:03:51;615.30;2432.00
54796;DHT22;40693;43.884;20.340;2023-08-20T01:09:05;615.30;2432.00
54796;DHT22;40693;43.884;20.340;2023-08-20T01:11:37;615.20;2432.00
54796;DHT22;40693;43.884;20.340;2023-08-20T01:14:14;615.10;2432.00
54796;DHT22;40693;43.884;20.340;2023-08-20T01:16:41;615.10;2432.00
54796;DHT22;40693;43.884;20.340;2023-08-20T01:19:09;615.10;2432.00
54796;DHT22;40693;43.884;20.340;2023-08-20T01:21:37;615.10;2432.00
54796;DHT22;40693;43.884;20.340;2023-08-20T01:24:13;615.10;2432.00
54796;DHT22;40693;43.884;20.340;2023-08-20T01:30:02;615.00;2432.00
54796;DHT22;40693;43.884;20.340;2023-08-20T01:32:29;615.00;2432.00
54796;DHT22;40693;43.884;20.340;2023-08-20T01:34:55;615.00;2432.00
54796;DHT22;40693;43.884;20.340;2023-08-20T01:37:21;615.00;2432.00
54796;DHT22;40693;43.884;20.340;2023-08-20T01:39:47;615.00;2432.00
54796;DHT22;40693;43.884;20.340;2023-08-20T01:42:13;615.00;2432.00
54796;DHT22;40693;43.884;20.340;2023-08-20T01:44:39;614.90;2432.00
54796;DHT22;40693;43.884;20.340;2023-08-20T01:47:05;615.00;2432.00
54796;DHT22;40693;43.884;20.340;2023-08-20T01:49:30;615.00;2432.00
54796;DHT22;40693;43.884;20.340;2023-08-20T01:51:56;614.90;2432.00
54796;DHT22;40693;43.884;20.340;2023-08-20T01:54:22;614.80;2432.00
54796;DHT22;40693;43.884;20.340;2023-08-20T01:56:47;614.80;2432.00
54796;DHT22;40693;43.884;20.340;2023-08-20T01:59:13;614.80;2432.00
54796;DHT22;40693;43.884;20.340;2023-08-20T02:01:39;614.80;2432.00
54796;DHT22;40693;43.884;20.340;2023-08-20T02:04:05;614.80;2432.00
54796;DHT22;40693;43.884;20.340;2023-08-20T02:06:30;614.80;2432.00
54796;DHT22;40693;43.884;20.340;2023-08-20T02:08:56;614.80;2432.00
54796;DHT22;40693;43.884;20.340;2023-08-20T02:11:22;614.90;2432.00
54796;DHT22;40693;43.884;20.340;2023-08-20T02:13:47;614.90;2432.00
54796;DHT22;40693;43.884;20.340;2023-08-20T02:16:13;614.90;2432.00
54796;DHT22;40693;43.884;20.340;2023-08-20T02:18:39;614.90;2432.00
54796;DHT22;40693;43.884;20.340;2023-08-20T02:21:04;614.90;2432.00
54796;DHT22;40693;43.884;20.340;2023-08-20T02:23:30;614.90;2432.00
54796;DHT22;40693;43.884;20.340;2023-08-20T02:25:56;614.90;2432.00
54796;DHT22;40693;43.884;20.340;2023-08-20T02:28:23;614.90;2432.00
54796;DHT22;40693;43.884;20.340;2023-08-20T02:30:50;615.20;2432.00
54796;DHT22;40693;43.884;20.340;2023-08-20T02:33:16;614.90;2432.00
54796;DHT22;40693;43.884;20.340;2023-08-20T02:35:42;614.90;2432.00
54796;DHT22;40693;43.884;20.340;2023-08-20T02:38:08;614.90;2432.00
54796;DHT22;40693;43.884;20.340;2023-08-20T02:40:40;614.80;2432.00
54796;DHT22;40693;43.884;20.340;2023-08-20T02:43:06;614.80;2432.00
54796;DHT22;40693;43.884;20.340;2023-08-20T02:45:32;614.80;2432.00
54796;DHT22;40693;43.884;20.340;2023-08-20T02:47:57;614.80;2432.00
54796;DHT22;40693;43.884;20.340;2023-08-20T02:50:23;614.80;2432.00
54796;DHT22;40693;43.884;20.340;2023-08-20T02:52:49;614.80;2432.00
54796;DHT22;40693;43.884;20.340;2023-08-20T02:55:14;614.80;2432.00
54796;DHT22;40693;43.884;20.340;2023-08-20T02:57:40;614.80;2432.00
54796;DHT22;40693;43.884;20.340;2023-08-20T03:00:06;614.80;2432.00
54796;DHT22;40693;43.884;20.340;2023-08-20T03:02:36;614.80;2432.00
54796;DHT22;40693;43.884;20.340;2023-08-20T03:05:02;614.70;2432.00
54796;DHT22;40693;43.884;20.340;2023-08-20T03:07:28;614.70;2432.00
54796;DHT22;40693;43.884;20.340;2023-08-20T03:09:54;614.70;2432.00
54796;DHT22;40693;43.884;20.340;2023-08-20T03:12:19;614.60;2432.00
54796;DHT22;40693;43.884;20.340;2023-08-20T03:14:45;614.60;2432.00
54796;DHT22;40693;43.884;20.340;2023-08-20T03:17:11;614.60;2432.00
54796;DHT22;40693;43.884;20.340;2023-08-20T03:19:36;614.60;2432.00
54796;DHT22;40693;43.884;20.340;2023-08-20T03:22:18;614.60;2432.00
54796;DHT22;40693;43.884;20.340;2023-08-20T03:24:44;614.50;2432.00
54796;DHT22;40693;43.884;20.340;2023-08-20T03:27:09;614.50;2432.00
54796;DHT22;40693;43.884;20.340;2023-08-20T03:29:35;614.50;2432.00
54796;DHT22;40693;43.884;20.340;2023-08-20T03:32:01;614.50;2432.00
54796;DHT22;40693;43.884;20.340;2023-08-20T03:34:26;614.50;2432.00
54796;DHT22;40693;43.884;20.340;2023-08-20T03:36:52;614.40;2432.00
54796;DHT22;40693;43.884;20.340;2023-08-20T03:39:18;589.70;2432.00
54796;DHT22;40693;43.884;20.340;2023-08-20T03:41:45;589.60;2432.00
54796;DHT22;40693;43.884;20.340;2023-08-20T03:44:10;589.50;2432.00
54796;DHT22;40693;43.884;20.340;2023-08-20T03:46:36;589.50;2432.00
54796;DHT22;40693;43.884;20.340;2023-08-20T03:49:02;589.50;2432.00
54796;DHT22;40693;43.884;20.340;2023-08-20T03:51:28;589.40;2432.00
54796;DHT22;40693;43.884;20.340;2023-08-20T03:53:54;589.40;2432.00
54796;DHT22;40693;43.884;20.340;2023-08-20T03:56:19;589.50;2432.00
54796;DHT22;40693;43.884;20.340;2023-08-20T03:58:45;589.40;2432.00
54796;DHT22;40693;43.884;20.340;2023-08-20T04:01:11;589.50;2432.00
54796;DHT22;40693;43.884;20.340;2023-08-20T04:03:37;589.50;2432.00
54796;DHT22;40693;43.884;20.340;2023-08-20T04:06:02;589.50;2432.00
54796;DHT22;40693;43.884;20.340;2023-08-20T04:08:29;589.50;2432.00
54796;DHT22;40693;43.884;20.340;2023-08-20T04:10:55;589.50;2432.00
54796;DHT22;40693;43.884;20.340;2023-08-20T04:13:20;589.60;2432.00
54796;DHT22;40693;43.884;20.340;2023-08-20T04:15:46;589.50;2432.00
54796;DHT22;40693;43.884;20.340;2023-08-20T04:18:12;589.60;2432.00
54796;DHT22;40693;43.884;20.340;2023-08-20T04:20:38;589.50;2432.00
54796;DHT22;40693;43.884;20.340;2023-08-20T04:23:04;589.50;2432.00
54796;DHT22;40693;43.884;20.340;2023-08-20T04:25:29;589.60;2432.00
54796;DHT22;40693;43.884;20.340;2023-08-20T04:27:55;589.60;2432.00
54796;DHT22;40693;43.884;20.340;2023-08-20T04:30:21;589.60;2432.00
54796;DHT22;40693;43.884;20.340;2023-08-20T04:32:46;589.60;2432.00
54796;DHT22;40693;43.884;20.340;2023-08-20T04:35:12;589.60;2432.00
54796;DHT22;40693;43.884;20.340;2023-08-20T04:37:38;589.60;2432.00
54796;DHT22;40693;43.884;20.340;2023-08-20T04:40:04;589.60;2432.00
54796;DHT22;40693;43.884;20.340;2023-08-20T04:42:31;589.60;2432.00
54796;DHT22;40693;43.884;20.340;2023-08-20T04:44:57;589.60;2432.00
54796;DHT22;40693;43.884;20.340;2023-08-20T04:47:22;589.60;2432.00
54796;DHT22;40693;43.884;20.340;2023-08-20T04:49:48;589.60;2432.00
54796;DHT22;40693;43.884;20.340;2023-08-20T04:52:14;589.60;2432.00
54796;DHT22;40693;43.884;20.340;2023-08-20T04:54:40;589.60;2432.00
54796;DHT22;40693;43.884;20.340;2023-08-20T04:57:05;589.60;2432.00
54796;DHT22;40693;43.884;20.340;2023-08-20T04:59:31;589.50;2432.00
54796;DHT22;40693;43.884;20.340;2023-08-20T05:01:57;589.50;2432.00
54796;DHT22;40693;43.884;20.340;2023-08-20T05:04:23;589.50;2432.00
54796;DHT22;40693;43.884;20.340;2023-08-20T05:06:48;589.40;2432.00
54796;DHT22;40693;43.884;20.340;2023-08-20T05:09:14;589.40;2432.00
54796;DHT22;40693;43.884;20.340;2023-08-20T05:11:41;589.50;2432.00
54796;DHT22;40693;43.884;20.340;2023-08-20T05:14:07;589.50;2432.00
54796;DHT22;40693;43.884;20.340;2023-08-20T05:16:32;589.50;2432.00
54796;DHT22;40693;43.884;20.340;2023-08-20T05:18:58;589.50;2432.00
54796;DHT22;40693;43.884;20.340;2023-08-20T05:21:24;589.50;2432.00
54796;DHT22;40693;43.884;20.340;2023-08-20T05:23:49;589.60;2432.00
54796;DHT22;40693;43.884;20.340;2023-08-20T05:26:15;589.60;2432.00
54796;DHT22;40693;43.884;20.340;2023-08-20T05:28:41;589.60;2432.00
54796;DHT22;40693;43.884;20.340;2023-08-20T05:31:07;589.70;2432.00
54796;DHT22;40693;43.884;20.340;2023-08-20T05:33:32;589.70;2432.00
54796;DHT22;40693;43.884;20.340;2023-08-20T05:36:00;589.70;2432.00
54796;DHT22;40693;43.884;20.340;2023-08-20T05:38:25;614.40;2432.00
54796;DHT22;40693;43.884;20.340;2023-08-20T05:40:51;614.50;2432.00
54796;DHT22;40693;43.884;20.340;2023-08-20T05:43:17;614.50;2432.00
54796;DHT22;40693;43.884;20.340;2023-08-20T05:45:42;614.60;2432.00
54796;DHT22;40693;43.884;20.340;2023-08-20T05:48:08;614.60;2432.00
54796;DHT22;40693;43.884;20.340;2023-08-20T05:50:34;614.60;2432.00
54796;DHT22;40693;43.884;20.340;2023-08-20T05:53:00;614.80;2432.00
54796;DHT22;40693;43.884;20.340;2023-08-20T05:55:26;614.80;2432.00
54796;DHT22;40693;43.884;20.340;2023-08-20T05:57:52;614.80;2432.00
54796;DHT22;40693;43.884;20.340;2023-08-20T06:00:17;614.90;2432.00
54796;DHT22;40693;43.884;20.340;2023-08-20T06:02:43;615.00;2432.00
54796;DHT22;40693;43.884;20.340;2023-08-20T06:05:09;615.10;2432.00
54796;DHT22;40693;43.884;20.340;2023-08-20T06:07:35;615.20;2432.00
54796;DHT22;40693;43.884;20.340;2023-08-20T06:10:01;615.20;2432.00
54796;DHT22;40693;43.884;20.340;2023-08-20T06:12:27;615.30;2432.00
54796;DHT22;40693;43.884;20.340;2023-08-20T06:14:53;640.00;2432.00
54796;DHT22;40693;43.884;20.340;2023-08-20T06:17:19;640.10;2432.00
54796;DHT22;40693;43.884;20.340;2023-08-20T06:19:45;640.20;2432.00
54796;DHT22;40693;43.884;20.340;2023-08-20T06:22:11;640.30;2432.00
54796;DHT22;40693;43.884;20.340;2023-08-20T06:24:36;640.40;2432.00
54796;DHT22;40693;43.884;20.340;2023-08-20T06:27:03;640.50;2432.00
54796;DHT22;40693;43.884;20.340;2023-08-20T06:29:28;640.70;2432.00
54796;DHT22;40693;43.884;20.340;2023-08-20T06:31:54;640.80;2432.00
54796;DHT22;40693;43.884;20.340;2023-08-20T06:34:20;640.90;2432.00
54796;DHT22;40693;43.884;20.340;2023-08-20T06:36:47;640.90;2432.00
54796;DHT22;40693;43.884;20.340;2023-08-20T06:39:12;665.60;2432.00
54796;DHT22;40693;43.884;20.340;2023-08-20T06:41:41;665.70;2432.00
54796;DHT22;40693;43.884;20.340;2023-08-20T06:44:06;665.80;2432.00
54796;DHT22;40693;43.884;20.340;2023-08-20T06:46:32;665.80;2432.00
54796;DHT22;40693;43.884;20.340;2023-08-20T06:48:58;666.00;2432.00
54796;DHT22;40693;43.884;20.340;2023-08-20T06:51:24;666.10;2432.00
54796;DHT22;40693;43.884;20.340;2023-08-20T06:53:50;666.20;2432.00
54796;DHT22;40693;43.884;20.340;2023-08-20T06:56:16;666.20;2432.00
54796;DHT22;40693;43.884;20.340;2023-08-20T06:58:42;666.40;2432.00
54796;DHT22;40693;43.884;20.340;2023-08-20T07:01:08;666.40;2432.00
54796;DHT22;40693;43.884;20.340;2023-08-20T07:03:38;666.50;2432.00
54796;DHT22;40693;43.884;20.340;2023-08-20T07:06:05;691.20;2432.00
54796;DHT22;40693;43.884;20.340;2023-08-20T07:08:30;691.40;2432.00
54796;DHT22;40693;43.884;20.340;2023-08-20T07:10:56;691.50;2432.00
54796;DHT22;40693;43.884;20.340;2023-08-20T07:13:22;691.60;2432.00
54796;DHT22;40693;43.884;20.340;2023-08-20T07:15:49;691.80;2432.00
54796;DHT22;40693;43.884;20.340;2023-08-20T07:18:15;691.90;2432.00
54796;DHT22;40693;43.884;20.340;2023-08-20T07:20:44;691.90;2432.00
54796;DHT22;40693;43.884;20.340;2023-08-20T07:23:10;716.80;2432.00
54796;DHT22;40693;43.884;20.340;2023-08-20T07:25:40;716.80;2432.00
54796;DHT22;40693;43.884;20.340;2023-08-20T07:28:07;716.90;2432.00
54796;DHT22;40693;43.884;20.340;2023-08-20T07:30:34;717.00;2432.00
54796;DHT22;40693;43.884;20.340;2023-08-20T07:33:00;717.20;2432.00
54796;DHT22;40693;43.884;20.340;2023-08-20T07:35:26;717.20;2432.00
54796;DHT22;40693;43.884;20.340;2023-08-20T07:37:52;717.30;2432.00
54796;DHT22;40693;43.884;20.340;2023-08-20T07:40:18;717.30;2432.00
54796;DHT22;40693;43.884;20.340;2023-08-20T07:42:43;717.40;2432.00
54796;DHT22;40693;43.884;20.340;2023-08-20T07:45:09;717.40;2432.00
54796;DHT22;40693;43.884;20.340;2023-08-20T07:47:36;717.60;2432.00
54796;DHT22;40693;43.884;20.340;2023-08-20T07:50:03;717.70;2432.00
54796;DHT22;40693;43.884;20.340;2023-08-20T07:52:30;742.40;2432.00
54796;DHT22;40693;43.884;20.340;2023-08-20T07:54:56;742.60;2432.00
54796;DHT22;40693;43.884;20.340;2023-08-20T07:57:22;742.60;2432.00
54796;DHT22;40693;43.884;20.340;2023-08-20T07:59:49;742.70;2432.00
54796;DHT22;40693;43.884;20.340;2023-08-20T08:02:15;742.80;2432.00
54796;DHT22;40693;43.884;20.340;2023-08-20T08:04:42;742.80;2432.00
54796;DHT22;40693;43.884;20.340;2023-08-20T08:07:09;742.90;2432.00
54796;DHT22;40693;43.884;20.340;2023-08-20T08:09:35;743.00;2432.00
54796;DHT22;40693;43.884;20.340;2023-08-20T08:12:01;743.00;2432.00
54796;DHT22;40693;43.884;20.340;2023-08-20T08:14:27;743.00;2432.00
54796;DHT22;40693;43.884;20.340;2023-08-20T08:16:53;743.00;2432.00
54796;DHT22;40693;43.884;20.340;2023-08-20T08:19:18;743.10;2432.00
54796;DHT22;40693;43.884;20.340;2023-08-20T08:21:46;742.90;2432.00
54796;DHT22;40693;43.884;20.340;2023-08-20T08:24:13;743.20;2432.00
54796;DHT22;40693;43.884;20.340;2023-08-20T08:26:39;743.30;2432.00
54796;DHT22;40693;43.884;20.340;2023-08-20T08:29:06;743.20;2432.00
54796;DHT22;40693;43.884;20.340;2023-08-20T08:31:32;768.10;2432.00
54796;DHT22;40693;43.884;20.340;2023-08-20T08:33:58;768.20;2432.00
54796;DHT22;40693;43.884;20.340;2023-08-20T08:36:24;768.40;2432.00
54796;DHT22;40693;43.884;20.340;2023-08-20T08:38:53;768.40;2432.00
54796;DHT22;40693;43.884;20.340;2023-08-20T08:41:22;768.60;2432.00
54796;DHT22;40693;43.884;20.340;2023-08-20T08:43:51;768.80;2432.00
54796;DHT22;40693;43.884;20.340;2023-08-20T08:46:17;768.90;2355.20
54796;DHT22;40693;43.884;20.340;2023-08-20T08:48:44;768.90;2329.60
54796;DHT22;40693;43.884;20.340;2023-08-20T08:51:12;793.70;2406.40
54796;DHT22;40693;43.884;20.340;2023-08-20T08:53:38;793.80;2380.80
54796;DHT22;40693;43.884;20.340;2023-08-20T08:56:04;793.70;2278.40
54796;DHT22;40693;43.884;20.340;2023-08-20T08:58:32;793.70;2304.00
54796;DHT22;40693;43.884;20.340;2023-08-20T09:00:58;793.90;2252.80
54796;DHT22;40693;43.884;20.340;2023-08-20T09:03:24;794.00;2252.80
54796;DHT22;40693;43.884;20.340;2023-08-20T09:06:00;794.20;2329.60
54796;DHT22;40693;43.884;20.340;2023-08-20T09:08:30;794.40;2278.40
54796;DHT22;40693;43.884;20.340;2023-08-20T09:10:57;794.50;2227.20
54796;DHT22;40693;43.884;20.340;2023-08-20T09:13:35;819.20;2227.20
54796;DHT22;40693;43.884;20.340;2023-08-20T09:16:07;819.30;2150.40
54796;DHT22;40693;43.884;20.340;2023-08-20T09:18:41;819.20;2124.80
54796;DHT22;40693;43.884;20.340;2023-08-20T09:21:10;794.50;2124.80
54796;DHT22;40693;43.884;20.340;2023-08-20T09:23:37;794.50;2124.80
54796;DHT22;40693;43.884;20.340;2023-08-20T09:26:07;794.50;2073.60
54796;DHT22;40693;43.884;20.340;2023-08-20T09:28:43;794.50;2099.20
54796;DHT22;40693;43.884;20.340;2023-08-20T09:31:10;819.30;2073.60
54796;DHT22;40693;43.884;20.340;2023-08-20T09:33:36;819.30;2073.60
54796;DHT22;40693;43.884;20.340;2023-08-20T09:36:07;819.30;2099.20
54796;DHT22;40693;43.884;20.340;2023-08-20T09:38:37;819.20;2124.80
54796;DHT22;40693;43.884;20.340;2023-08-20T09:41:05;819.30;2099.20
54796;DHT22;40693;43.884;20.340;2023-08-20T09:43:37;819.30;2073.60
54796;DHT22;40693;43.884;20.340;2023-08-20T09:46:04;819.50;2073.60
54796;DHT22;40693;43.884;20.340;2023-08-20T09:48:34;819.80;2099.20
54796;DHT22;40693;43.884;20.340;2023-08-20T09:51:06;819.80;2022.40
54796;DHT22;40693;43.884;20.340;2023-08-20T09:53:44;819.80;2022.40
54796;DHT22;40693;43.884;20.340;2023-08-20T09:56:27;819.70;2048.00
54796;DHT22;40693;43.884;20.340;2023-08-20T09:58:55;819.90;2022.40
54796;DHT22;40693;43.884;20.340;2023-08-20T10:01:21;820.00;1996.80
54796;DHT22;40693;43.884;20.340;2023-08-20T10:03:47;819.90;1996.80
54796;DHT22;40693;43.884;20.340;2023-08-20T10:06:13;820.10;1971.20
54796;DHT22;40693;43.884;20.340;2023-08-20T10:08:39;819.80;1920.00
54796;DHT22;40693;43.884;20.340;2023-08-20T10:11:05;844.90;1971.20
54796;DHT22;40693;43.884;20.340;2023-08-20T10:13:31;844.90;1971.20
54796;DHT22;40693;43.884;20.340;2023-08-20T10:15:58;845.00;1945.60
54796;DHT22;40693;43.884;20.340;2023-08-20T10:18:23;845.10;1920.00
54796;DHT22;40693;43.884;20.340;2023-08-20T10:20:50;845.20;1920.00
54796;DHT22;40693;43.884;20.340;2023-08-20T10:23:21;845.30;1894.40
54796;DHT22;40693;43.884;20.340;2023-08-20T10:25:52;845.40;1894.40
54796;DHT22;40693;43.884;20.340;2023-08-20T10:28:27;845.40;1894.40
54796;DHT22;40693;43.884;20.340;2023-08-20T10:31:07;845.70;1971.20
54796;DHT22;40693;43.884;20.340;2023-08-20T10:36:17;870.70;1868.80
54796;DHT22;40693;43.884;20.340;2023-08-20T10:38:45;871.00;1843.20
54796;DHT22;40693;43.884;20.340;2023-08-20T10:41:13;871.00;1817.60
54796;DHT22;40693;43.884;20.340;2023-08-20T10:46:20;871.30;1740.80
54796;DHT22;40693;43.884;20.340;2023-08-20T10:48:57;871.20;1740.80
54796;DHT22;40693;43.884;20.340;2023-08-20T10:51:36;871.20;1715.20
54796;DHT22;40693;43.884;20.340;2023-08-20T10:54:05;871.20;1740.80
54796;DHT22;40693;43.884;20.340;2023-08-20T10:59:15;871.30;1715.20
54796;DHT22;40693;43.884;20.340;2023-08-20T11:01:52;896.00;1715.20
54796;DHT22;40693;43.884;20.340;2023-08-20T11:04:20;896.10;1715.20
54796;DHT22;40693;43.884;20.340;2023-08-20T11:06:49;896.20;1664.00
54796;DHT22;40693;43.884;20.340;2023-08-20T11:09:15;896.20;1664.00
54796;DHT22;40693;43.884;20.340;2023-08-20T11:11:48;896.10;1664.00
54796;DHT22;40693;43.884;20.340;2023-08-20T11:14:15;896.10;1664.00
54796;DHT22;40693;43.884;20.340;2023-08-20T11:16:43;896.40;1689.60
54796;DHT22;40693;43.884;20.340;2023-08-20T11:19:10;896.50;1689.60
54796;DHT22;40693;43.884;20.340;2023-08-20T11:21:40;896.60;1612.80
54796;DHT22;40693;43.884;20.340;2023-08-20T11:24:06;896.90;1664.00
54796;DHT22;40693;43.884;20.340;2023-08-20T11:26:35;921.60;1638.40
54796;DHT22;40693;43.884;20.340;2023-08-20T11:29:05;921.60;1612.80
54796;DHT22;40693;43.884;20.340;2023-08-20T11:31:31;921.60;1587.20
54796;DHT22;40693;43.884;20.340;2023-08-20T11:33:57;921.70;1587.20
54796;DHT22;40693;43.884;20.340;2023-08-20T11:36:23;921.80;1587.20
54796;DHT22;40693;43.884;20.340;2023-08-20T11:38:55;921.60;1561.60
54796;DHT22;40693;43.884;20.340;2023-08-20T11:41:22;896.80;1510.40
54796;DHT22;40693;43.884;20.340;2023-08-20T11:43:49;896.80;1561.60
54796;DHT22;40693;43.884;20.340;2023-08-20T11:46:17;896.80;1561.60
54796;DHT22;40693;43.884;20.340;2023-08-20T11:51:29;921.80;1587.20
54796;DHT22;40693;43.884;20.340;2023-08-20T11:53:57;921.80;1510.40
54796;DHT22;40693;43.884;20.340;2023-08-20T11:56:22;922.00;1536.00
54796;DHT22;40693;43.884;20.340;2023-08-20T11:58:52;922.00;1510.40
54796;DHT22;40693;43.884;20.340;2023-08-20T12:01:19;922.00;1510.40
54796;DHT22;40693;43.884;20.340;2023-08-20T12:03:45;922.00;1510.40
54796;DHT22;40693;43.884;20.340;2023-08-20T12:06:21;922.30;1510.40
54796;DHT22;40693;43.884;20.340;2023-08-20T12:08:48;922.20;1459.20
54796;DHT22;40693;43.884;20.340;2023-08-20T12:11:14;922.50;1433.60
54796;DHT22;40693;43.884;20.340;2023-08-20T12:13:40;922.50;1459.20
54796;DHT22;40693;43.884;20.340;2023-08-20T12:16:06;922.50;1408.00
54796;DHT22;40693;43.884;20.340;2023-08-20T12:18:32;922.50;1382.40
54796;DHT22;40693;43.884;20.340;2023-08-20T12:20:58;922.50;1382.40
54796;DHT22;40693;43.884;20.340;2023-08-20T12:23:23;947.20;1356.80
54796;DHT22;40693;43.884;20.340;2023-08-20T12:25:52;922.50;1382.40
54796;DHT22;40693;43.884;20.340;2023-08-20T12:28:18;922.50;1382.40
54796;DHT22;40693;43.884;20.340;2023-08-20T12:30:44;922.50;1382.40
54796;DHT22;40693;43.884;20.340;2023-08-20T12:33:11;922.50;1356.80
54796;DHT22;40693;43.884;20.340;2023-08-20T12:35:37;922.50;1356.80
54796;DHT22;40693;43.884;20.340;2023-08-20T12:38:03;922.50;1356.80
54796;DHT22;40693;43.884;20.340;2023-08-20T12:40:30;922.50;1356.80
54796;DHT22;40693;43.884;20.340;2023-08-20T12:42:56;922.50;1356.80
54796;DHT22;40693;43.884;20.340;2023-08-20T12:45:22;947.20;1356.80
54796;DHT22;40693;43.884;20.340;2023-08-20T12:47:47;947.50;1356.80
54796;DHT22;40693;43.884;20.340;2023-08-20T12:50:14;947.60;1382.40
54796;DHT22;40693;43.884;20.340;2023-08-20T12:52:40;947.80;1331.20
54796;DHT22;40693;43.884;20.340;2023-08-20T12:55:06;972.80;1356.80
54796;DHT22;40693;43.884;20.340;2023-08-20T12:57:34;972.90;1356.80
54796;DHT22;40693;43.884;20.340;2023-08-20T13:00:00;973.20;1331.20
54796;DHT22;40693;43.884;20.340;2023-08-20T13:02:26;972.90;1331.20
54796;DHT22;40693;43.884;20.340;2023-08-20T13:04:52;972.90;1305.60
54796;DHT22;40693;43.884;20.340;2023-08-20T13:07:18;972.80;1356.80
54796;DHT22;40693;43.884;20.340;2023-08-20T13:09:44;947.90;1305.60
54796;DHT22;40693;43.884;20.340;2023-08-20T13:12:10;947.90;1305.60
54796;DHT22;40693;43.884;20.340;2023-08-20T13:14:39;947.90;1331.20
54796;DHT22;40693;43.884;20.340;2023-08-20T13:17:06;947.80;1331.20
54796;DHT22;40693;43.884;20.340;2023-08-20T13:19:32;947.80;1356.80
54796;DHT22;40693;43.884;20.340;2023-08-20T13:21:58;947.90;1356.80
54796;DHT22;40693;43.884;20.340;2023-08-20T13:24:30;948.10;1331.20
54796;DHT22;40693;43.884;20.340;2023-08-20T13:26:56;972.80;1356.80
54796;DHT22;40693;43.884;20.340;2023-08-20T13:29:22;973.10;1331.20
54796;DHT22;40693;43.884;20.340;2023-08-20T13:31:47;972.80;1331.20
54796;DHT22;40693;43.884;20.340;2023-08-20T13:34:13;972.80;1280.00
54796;DHT22;40693;43.884;20.340;2023-08-20T13:36:39;972.80;1305.60
54796;DHT22;40693;43.884;20.340;2023-08-20T13:39:05;972.80;1331.20
54796;DHT22;40693;43.884;20.340;2023-08-20T13:41:30;972.90;1280.00
54796;DHT22;40693;43.884;20.340;2023-08-20T13:43:56;948.10;1280.00
54796;DHT22;40693;43.884;20.340;2023-08-20T13:46:22;948.10;1305.60
54796;DHT22;40693;43.884;20.340;2023-08-20T13:48:48;948.10;1280.00
54796;DHT22;40693;43.884;20.340;2023-08-20T13:51:14;973.10;1331.20
54796;DHT22;40693;43.884;20.340;2023-08-20T13:53:40;973.10;1280.00
54796;DHT22;40693;43.884;20.340;2023-08-20T13:56:05;973.00;1305.60
54796;DHT22;40693;43.884;20.340;2023-08-20T13:58:31;973.00;1331.20
54796;DHT22;40693;43.884;20.340;2023-08-20T14:00:57;972.80;1305.60
54796;DHT22;40693;43.884;20.340;2023-08-20T14:03:23;972.80;1305.60
54796;DHT22;40693;43.884;20.340;2023-08-20T14:05:49;973.00;1305.60
54796;DHT22;40693;43.884;20.340;2023-08-20T14:08:14;972.80;1305.60
54796;DHT22;40693;43.884;20.340;2023-08-20T14:10:40;948.10;1305.60
54796;DHT22;40693;43.884;20.340;2023-08-20T14:13:06;948.10;1305.60
54796;DHT22;40693;43.884;20.340;2023-08-20T14:15:31;948.10;1331.20
54796;DHT22;40693;43.884;20.340;2023-08-20T14:17:57;948.10;1331.20
54796;DHT22;40693;43.884;20.340;2023-08-20T14:20:23;948.10;1305.60
54796;DHT22;40693;43.884;20.340;2023-08-20T14:22:49;948.10;1305.60
54796;DHT22;40693;43.884;20.340;2023-08-20T14:25:14;972.80;1331.20
54796;DHT22;40693;43.884;20.340;2023-08-20T14:27:40;972.90;1331.20
54796;DHT22;40693;43.884;20.340;2023-08-20T14:30:07;972.90;1331.20
54796;DHT22;40693;43.884;20.340;2023-08-20T14:32:34;972.80;1331.20
54796;DHT22;40693;43.884;20.340;2023-08-20T14:35:21;972.90;1356.80
54796;DHT22;40693;43.884;20.340;2023-08-20T14:37:46;972.80;1331.20
54796;DHT22;40693;43.884;20.340;2023-08-20T14:40:13;972.90;1331.20
54796;DHT22;40693;43.884;20.340;2023-08-20T14:42:38;972.90;1331.20
54796;DHT22;40693;43.884;20.340;2023-08-20T14:45:07;972.90;1331.20
54796;DHT22;40693;43.884;20.340;2023-08-20T14:47:32;973.10;1356.80
54796;DHT22;40693;43.884;20.340;2023-08-20T14:49:58;972.90;1331.20
54796;DHT22;40693;43.884;20.340;2023-08-20T14:52:24;972.90;1331.20
54796;DHT22;40693;43.884;20.340;2023-08-20T14:54:50;972.90;1331.20